sensor_id;sensor_type;location;lat;lon;timestamp;pressure;altitude;pressure_sealevel;temperature
59339;BMP280;45117;50.960;5.500;2023-03-29T00:01:18;100799.25;;;6.65
59339;BMP280;45117;50.960;5.500;2023-03-29T00:03:45;100789.72;;;6.64
59339;BMP280;45117;50.960;5.500;2023-03-29T00:06:14;100788.59;;;6.65
59339;BMP280;45117;50.960;5.500;2023-03-29T00:08:46;100797.38;;;6.65
59339;BMP280;45117;50.960;5.500;2023-03-29T00:11:15;100793.53;;;6.63
59339;BMP280;45117;50.960;5.500;2023-03-29T00:13:43;100789.41;;;6.69
59339;BMP280;45117;50.960;5.500;2023-03-29T00:16:09;100784.41;;;6.64
59339;BMP280;45117;50.960;5.500;2023-03-29T00:18:37;100787.78;;;6.61
59339;BMP280;45117;50.960;5.500;2023-03-29T00:21:04;100784.00;;;6.62
59339;BMP280;45117;50.960;5.500;2023-03-29T00:23:30;100776.38;;;6.60
59339;BMP280;45117;50.960;5.500;2023-03-29T00:25:57;100768.41;;;6.64
59339;BMP280;45117;50.960;5.500;2023-03-29T00:28:23;100770.78;;;6.72
59339;BMP280;45117;50.960;5.500;2023-03-29T00:30:52;100767.25;;;6.65
59339;BMP280;45117;50.960;5.500;2023-03-29T00:33:19;100777.59;;;6.66
59339;BMP280;45117;50.960;5.500;2023-03-29T00:35:46;100783.31;;;6.68
59339;BMP280;45117;50.960;5.500;2023-03-29T00:38:13;100776.84;;;6.69
59339;BMP280;45117;50.960;5.500;2023-03-29T00:40:41;100770.72;;;6.65
59339;BMP280;45117;50.960;5.500;2023-03-29T00:43:09;100766.22;;;6.73
59339;BMP280;45117;50.960;5.500;2023-03-29T00:45:36;100761.97;;;6.68
59339;BMP280;45117;50.960;5.500;2023-03-29T00:48:06;100767.34;;;6.72
59339;BMP280;45117;50.960;5.500;2023-03-29T00:50:36;100762.75;;;6.69
59339;BMP280;45117;50.960;5.500;2023-03-29T00:53:08;100760.06;;;6.69
59339;BMP280;45117;50.960;5.500;2023-03-29T00:55:40;100755.88;;;6.68
59339;BMP280;45117;50.960;5.500;2023-03-29T00:58:08;100749.44;;;6.72
59339;BMP280;45117;50.960;5.500;2023-03-29T01:00:43;100744.13;;;6.72
59339;BMP280;45117;50.960;5.500;2023-03-29T01:03:15;100742.63;;;6.75
59339;BMP280;45117;50.960;5.500;2023-03-29T01:05:50;100733.47;;;6.76
59339;BMP280;45117;50.960;5.500;2023-03-29T01:08:21;100737.31;;;6.79
59339;BMP280;45117;50.960;5.500;2023-03-29T01:10:52;100727.00;;;6.77
59339;BMP280;45117;50.960;5.500;2023-03-29T01:13:24;100736.56;;;6.78
59339;BMP280;45117;50.960;5.500;2023-03-29T01:15:54;100733.16;;;6.81
59339;BMP280;45117;50.960;5.500;2023-03-29T01:18:24;100740.03;;;6.82
59339;BMP280;45117;50.960;5.500;2023-03-29T01:21:00;100733.63;;;6.87
59339;BMP280;45117;50.960;5.500;2023-03-29T01:23:39;100727.09;;;6.84
59339;BMP280;45117;50.960;5.500;2023-03-29T01:26:13;100724.84;;;6.90
59339;BMP280;45117;50.960;5.500;2023-03-29T01:28:49;100724.06;;;6.89
59339;BMP280;45117;50.960;5.500;2023-03-29T01:31:20;100724.06;;;6.89
59339;BMP280;45117;50.960;5.500;2023-03-29T01:33:50;100731.72;;;6.91
59339;BMP280;45117;50.960;5.500;2023-03-29T01:36:22;100720.25;;;6.90
59339;BMP280;45117;50.960;5.500;2023-03-29T01:38:53;100723.41;;;6.96
59339;BMP280;45117;50.960;5.500;2023-03-29T01:41:21;100723.41;;;6.96
59339;BMP280;45117;50.960;5.500;2023-03-29T01:43:56;100709.69;;;7.01
59339;BMP280;45117;50.960;5.500;2023-03-29T01:46:28;100706.66;;;7.02
59339;BMP280;45117;50.960;5.500;2023-03-29T01:48:58;100706.31;;;7.04
59339;BMP280;45117;50.960;5.500;2023-03-29T01:51:30;100704.78;;;7.07
59339;BMP280;45117;50.960;5.500;2023-03-29T01:54:03;100697.19;;;7.09
59339;BMP280;45117;50.960;5.500;2023-03-29T01:56:34;100699.88;;;7.09
59339;BMP280;45117;50.960;5.500;2023-03-29T01:59:06;100701.03;;;7.11
59339;BMP280;45117;50.960;5.500;2023-03-29T02:01:37;100698.34;;;7.11
59339;BMP280;45117;50.960;5.500;2023-03-29T02:04:08;100691.13;;;7.12
59339;BMP280;45117;50.960;5.500;2023-03-29T02:06:37;100694.16;;;7.14
59339;BMP280;45117;50.960;5.500;2023-03-29T02:09:05;100693.50;;;7.20
59339;BMP280;45117;50.960;5.500;2023-03-29T02:11:34;100678.63;;;7.26
59339;BMP280;45117;50.960;5.500;2023-03-29T02:14:01;100679.34;;;7.20
59339;BMP280;45117;50.960;5.500;2023-03-29T02:16:33;100677.88;;;7.26
59339;BMP280;45117;50.960;5.500;2023-03-29T02:19:00;100673.66;;;7.25
59339;BMP280;45117;50.960;5.500;2023-03-29T02:21:29;100671.03;;;7.28
59339;BMP280;45117;50.960;5.500;2023-03-29T02:24:00;100673.72;;;7.32
59339;BMP280;45117;50.960;5.500;2023-03-29T02:26:30;100667.56;;;7.28
59339;BMP280;45117;50.960;5.500;2023-03-29T02:28:57;100661.16;;;7.33
59339;BMP280;45117;50.960;5.500;2023-03-29T02:31:27;100659.59;;;7.31
59339;BMP280;45117;50.960;5.500;2023-03-29T02:34:01;100653.13;;;7.29
59339;BMP280;45117;50.960;5.500;2023-03-29T02:36:33;100644.34;;;7.28
59339;BMP280;45117;50.960;5.500;2023-03-29T02:39:03;100647.03;;;7.32
59339;BMP280;45117;50.960;5.500;2023-03-29T02:41:33;100637.53;;;7.38
59339;BMP280;45117;50.960;5.500;2023-03-29T02:44:00;100641.34;;;7.37
59339;BMP280;45117;50.960;5.500;2023-03-29T02:46:29;100641.00;;;7.42
59339;BMP280;45117;50.960;5.500;2023-03-29T02:48:56;100639.47;;;7.41
59339;BMP280;45117;50.960;5.500;2023-03-29T02:51:28;100634.13;;;7.41
59339;BMP280;45117;50.960;5.500;2023-03-29T02:54:00;100636.44;;;7.46
59339;BMP280;45117;50.960;5.500;2023-03-29T02:56:28;100637.59;;;7.45
59339;BMP280;45117;50.960;5.500;2023-03-29T02:58:54;100628.78;;;7.41
59339;BMP280;45117;50.960;5.500;2023-03-29T03:01:21;100635.69;;;7.46
59339;BMP280;45117;50.960;5.500;2023-03-29T03:03:48;100634.50;;;7.43
59339;BMP280;45117;50.960;5.500;2023-03-29T03:06:15;100632.63;;;7.47
59339;BMP280;45117;50.960;5.500;2023-03-29T03:08:43;100623.44;;;7.48
59339;BMP280;45117;50.960;5.500;2023-03-29T03:11:10;100621.59;;;7.56
59339;BMP280;45117;50.960;5.500;2023-03-29T03:13:36;100616.59;;;7.47
59339;BMP280;45117;50.960;5.500;2023-03-29T03:16:03;100620.44;;;7.50
59339;BMP280;45117;50.960;5.500;2023-03-29T03:18:30;100618.88;;;7.49
59339;BMP280;45117;50.960;5.500;2023-03-29T03:20:58;100613.94;;;7.51
59339;BMP280;45117;50.960;5.500;2023-03-29T03:23:26;100620.44;;;7.50
59339;BMP280;45117;50.960;5.500;2023-03-29T03:25:55;100621.56;;;7.52
59339;BMP280;45117;50.960;5.500;2023-03-29T03:28:22;100625.41;;;7.55
59339;BMP280;45117;50.960;5.500;2023-03-29T03:30:51;100616.22;;;7.52
59339;BMP280;45117;50.960;5.500;2023-03-29T03:33:18;100620.84;;;7.59
59339;BMP280;45117;50.960;5.500;2023-03-29T03:35:45;100618.16;;;7.59
59339;BMP280;45117;50.960;5.500;2023-03-29T03:38:12;100616.25;;;7.59
59339;BMP280;45117;50.960;5.500;2023-03-29T03:40:38;100615.13;;;7.61
59339;BMP280;45117;50.960;5.500;2023-03-29T03:43:06;100609.41;;;7.66
59339;BMP280;45117;50.960;5.500;2023-03-29T03:45:33;100611.75;;;7.71
59339;BMP280;45117;50.960;5.500;2023-03-29T03:47:59;100610.59;;;7.72
59339;BMP280;45117;50.960;5.500;2023-03-29T03:50:26;100606.00;;;7.69
59339;BMP280;45117;50.960;5.500;2023-03-29T03:52:52;100603.34;;;7.69
59339;BMP280;45117;50.960;5.500;2023-03-29T03:55:19;100607.53;;;7.70
59339;BMP280;45117;50.960;5.500;2023-03-29T03:57:46;100607.91;;;7.72
59339;BMP280;45117;50.960;5.500;2023-03-29T04:00:14;100604.88;;;7.73
59339;BMP280;45117;50.960;5.500;2023-03-29T04:02:44;100604.88;;;7.77
59339;BMP280;45117;50.960;5.500;2023-03-29T04:05:11;100603.38;;;7.76
59339;BMP280;45117;50.960;5.500;2023-03-29T04:07:38;100598.41;;;7.78
59339;BMP280;45117;50.960;5.500;2023-03-29T04:10:05;100593.81;;;7.75
59339;BMP280;45117;50.960;5.500;2023-03-29T04:12:33;100601.09;;;7.81
59339;BMP280;45117;50.960;5.500;2023-03-29T04:15:00;100603.00;;;7.81
59339;BMP280;45117;50.960;5.500;2023-03-29T04:17:29;100603.38;;;7.83
59339;BMP280;45117;50.960;5.500;2023-03-29T04:19:55;100601.09;;;7.81
59339;BMP280;45117;50.960;5.500;2023-03-29T04:22:22;100599.56;;;7.80
59339;BMP280;45117;50.960;5.500;2023-03-29T04:24:49;100591.16;;;7.82
59339;BMP280;45117;50.960;5.500;2023-03-29T04:27:16;100598.03;;;7.83
59339;BMP280;45117;50.960;5.500;2023-03-29T04:29:42;100595.00;;;7.88
59339;BMP280;45117;50.960;5.500;2023-03-29T04:32:11;100589.66;;;7.88
59339;BMP280;45117;50.960;5.500;2023-03-29T04:34:39;100595.41;;;7.90
59339;BMP280;45117;50.960;5.500;2023-03-29T04:37:05;100593.88;;;7.96
59339;BMP280;45117;50.960;5.500;2023-03-29T04:39:34;100598.81;;;7.94
59339;BMP280;45117;50.960;5.500;2023-03-29T04:42:01;100587.78;;;7.96
59339;BMP280;45117;50.960;5.500;2023-03-29T04:44:28;100595.00;;;7.95
59339;BMP280;45117;50.960;5.500;2023-03-29T04:46:57;100601.91;;;7.96
59339;BMP280;45117;50.960;5.500;2023-03-29T04:49:24;100596.56;;;8.00
59339;BMP280;45117;50.960;5.500;2023-03-29T04:51:52;100598.47;;;7.96
59339;BMP280;45117;50.960;5.500;2023-03-29T04:54:19;100599.97;;;8.04
59339;BMP280;45117;50.960;5.500;2023-03-29T04:56:45;100604.59;;;8.03
59339;BMP280;45117;50.960;5.500;2023-03-29T04:59:12;100597.72;;;8.06
59339;BMP280;45117;50.960;5.500;2023-03-29T05:01:38;100604.97;;;8.05
59339;BMP280;45117;50.960;5.500;2023-03-29T05:04:05;100603.44;;;8.04
59339;BMP280;45117;50.960;5.500;2023-03-29T05:06:31;100601.16;;;8.10
59339;BMP280;45117;50.960;5.500;2023-03-29T05:08:59;100597.31;;;8.07
59339;BMP280;45117;50.960;5.500;2023-03-29T05:11:26;100595.44;;;8.11
59339;BMP280;45117;50.960;5.500;2023-03-29T05:13:53;100584.75;;;8.15
59339;BMP280;45117;50.960;5.500;2023-03-29T05:16:22;100583.97;;;8.14
59339;BMP280;45117;50.960;5.500;2023-03-29T05:18:50;100587.81;;;8.13
59339;BMP280;45117;50.960;5.500;2023-03-29T05:21:17;100585.91;;;8.18
59339;BMP280;45117;50.960;5.500;2023-03-29T05:23:44;100586.66;;;8.18
59339;BMP280;45117;50.960;5.500;2023-03-29T05:26:12;100579.03;;;8.20
59339;BMP280;45117;50.960;5.500;2023-03-29T05:28:39;100577.53;;;8.23
59339;BMP280;45117;50.960;5.500;2023-03-29T05:31:06;100589.75;;;8.24
59339;BMP280;45117;50.960;5.500;2023-03-29T05:33:33;100594.31;;;8.27
59339;BMP280;45117;50.960;5.500;2023-03-29T05:36:01;100593.16;;;8.28
59339;BMP280;45117;50.960;5.500;2023-03-29T05:38:28;100591.25;;;8.28
59339;BMP280;45117;50.960;5.500;2023-03-29T05:40:57;100591.28;;;8.35
59339;BMP280;45117;50.960;5.500;2023-03-29T05:43:25;100588.19;;;8.37
59339;BMP280;45117;50.960;5.500;2023-03-29T05:45:52;100590.53;;;8.42
59339;BMP280;45117;50.960;5.500;2023-03-29T05:48:19;100592.03;;;8.47
59339;BMP280;45117;50.960;5.500;2023-03-29T05:50:46;100595.88;;;8.53
59339;BMP280;45117;50.960;5.500;2023-03-29T05:53:14;100597.38;;;8.57
59339;BMP280;45117;50.960;5.500;2023-03-29T05:55:40;100593.19;;;8.60
59339;BMP280;45117;50.960;5.500;2023-03-29T05:58:07;100595.06;;;8.66
59339;BMP280;45117;50.960;5.500;2023-03-29T06:00:38;100598.19;;;8.76
59339;BMP280;45117;50.960;5.500;2023-03-29T06:03:05;100598.13;;;8.83
59339;BMP280;45117;50.960;5.500;2023-03-29T06:05:33;100596.63;;;8.85
59339;BMP280;45117;50.960;5.500;2023-03-29T06:07:59;100597.72;;;8.88
59339;BMP280;45117;50.960;5.500;2023-03-29T06:10:26;100598.88;;;8.87
59339;BMP280;45117;50.960;5.500;2023-03-29T06:12:54;100600.06;;;8.86
59339;BMP280;45117;50.960;5.500;2023-03-29T06:15:20;100596.97;;;8.91
59339;BMP280;45117;50.960;5.500;2023-03-29T06:17:49;100591.25;;;8.92
59339;BMP280;45117;50.960;5.500;2023-03-29T06:20:16;100601.19;;;8.92
59339;BMP280;45117;50.960;5.500;2023-03-29T06:22:43;100602.72;;;8.93
59339;BMP280;45117;50.960;5.500;2023-03-29T06:25:10;100605.78;;;8.95
59339;BMP280;45117;50.960;5.500;2023-03-29T06:27:38;100604.25;;;8.94
59339;BMP280;45117;50.960;5.500;2023-03-29T06:30:06;100599.25;;;8.96
59339;BMP280;45117;50.960;5.500;2023-03-29T06:32:33;100598.09;;;9.01
59339;BMP280;45117;50.960;5.500;2023-03-29T06:35:01;100602.69;;;9.07
59339;BMP280;45117;50.960;5.500;2023-03-29T06:37:29;100609.56;;;9.12
59339;BMP280;45117;50.960;5.500;2023-03-29T06:39:56;100603.03;;;9.16
59339;BMP280;45117;50.960;5.500;2023-03-29T06:42:24;100596.16;;;9.19
59339;BMP280;45117;50.960;5.500;2023-03-29T06:44:50;100596.50;;;9.24
59339;BMP280;45117;50.960;5.500;2023-03-29T06:47:18;100594.94;;;9.34
59339;BMP280;45117;50.960;5.500;2023-03-29T06:49:44;100592.59;;;9.47
59339;BMP280;45117;50.960;5.500;2023-03-29T06:52:12;100596.41;;;9.60
59339;BMP280;45117;50.960;5.500;2023-03-29T06:54:39;100590.66;;;9.58
59339;BMP280;45117;50.960;5.500;2023-03-29T06:57:06;100581.13;;;9.50
59339;BMP280;45117;50.960;5.500;2023-03-29T06:59:32;100595.59;;;9.63
59339;BMP280;45117;50.960;5.500;2023-03-29T07:01:59;100598.66;;;9.65
59339;BMP280;45117;50.960;5.500;2023-03-29T07:04:26;100599.38;;;9.73
59339;BMP280;45117;50.960;5.500;2023-03-29T07:06:53;100604.69;;;9.80
59339;BMP280;45117;50.960;5.500;2023-03-29T07:09:27;100607.69;;;9.93
59339;BMP280;45117;50.960;5.500;2023-03-29T07:11:55;100610.31;;;10.03
59339;BMP280;45117;50.960;5.500;2023-03-29T07:14:21;100614.50;;;10.08
59339;BMP280;45117;50.960;5.500;2023-03-29T07:16:50;100611.41;;;10.13
59339;BMP280;45117;50.960;5.500;2023-03-29T07:19:17;100610.25;;;10.14
59339;BMP280;45117;50.960;5.500;2023-03-29T07:21:43;100608.28;;;10.18
59339;BMP280;45117;50.960;5.500;2023-03-29T07:24:10;100599.88;;;10.16
59339;BMP280;45117;50.960;5.500;2023-03-29T07:26:38;100609.81;;;10.23
59339;BMP280;45117;50.960;5.500;2023-03-29T07:29:04;100610.59;;;10.16
59339;BMP280;45117;50.960;5.500;2023-03-29T07:31:32;100616.72;;;10.20
59339;BMP280;45117;50.960;5.500;2023-03-29T07:34:02;100616.72;;;10.20
59339;BMP280;45117;50.960;5.500;2023-03-29T07:36:30;100624.34;;;10.25
59339;BMP280;45117;50.960;5.500;2023-03-29T07:38:59;100625.44;;;10.31
59339;BMP280;45117;50.960;5.500;2023-03-29T07:41:26;100624.66;;;10.34
59339;BMP280;45117;50.960;5.500;2023-03-29T07:43:54;100633.41;;;10.46
59339;BMP280;45117;50.960;5.500;2023-03-29T07:46:21;100628.38;;;10.48
59339;BMP280;45117;50.960;5.500;2023-03-29T07:48:48;100642.53;;;10.52
59339;BMP280;45117;50.960;5.500;2023-03-29T07:51:14;100629.50;;;10.50
59339;BMP280;45117;50.960;5.500;2023-03-29T07:53:41;100635.63;;;10.51
59339;BMP280;45117;50.960;5.500;2023-03-29T07:56:08;100638.66;;;10.56
59339;BMP280;45117;50.960;5.500;2023-03-29T07:58:34;100640.97;;;10.58
59339;BMP280;45117;50.960;5.500;2023-03-29T08:01:03;100628.59;;;10.68
59339;BMP280;45117;50.960;5.500;2023-03-29T08:03:30;100644.69;;;10.71
59339;BMP280;45117;50.960;5.500;2023-03-29T08:05:56;100651.94;;;10.74
59339;BMP280;45117;50.960;5.500;2023-03-29T08:08:26;100644.63;;;10.78
59339;BMP280;45117;50.960;5.500;2023-03-29T08:10:53;100647.28;;;10.82
59339;BMP280;45117;50.960;5.500;2023-03-29T08:13:20;100641.13;;;10.81
59339;BMP280;45117;50.960;5.500;2023-03-29T08:15:47;100640.78;;;10.79
59339;BMP280;45117;50.960;5.500;2023-03-29T08:18:15;100636.03;;;10.94
59339;BMP280;45117;50.960;5.500;2023-03-29T08:20:42;100640.63;;;10.93
59339;BMP280;45117;50.960;5.500;2023-03-29T08:23:09;100640.13;;;11.06
59339;BMP280;45117;50.960;5.500;2023-03-29T08:25:35;100636.28;;;11.07
59339;BMP280;45117;50.960;5.500;2023-03-29T08:28:02;100643.94;;;11.12
59339;BMP280;45117;50.960;5.500;2023-03-29T08:30:29;100643.19;;;11.08
59339;BMP280;45117;50.960;5.500;2023-03-29T08:32:55;100638.13;;;11.13
59339;BMP280;45117;50.960;5.500;2023-03-29T08:35:23;100646.63;;;11.12
59339;BMP280;45117;50.960;5.500;2023-03-29T08:37:50;100645.06;;;11.11
59339;BMP280;45117;50.960;5.500;2023-03-29T08:40:20;100641.94;;;11.16
59339;BMP280;45117;50.960;5.500;2023-03-29T08:43:06;100642.25;;;11.21
59339;BMP280;45117;50.960;5.500;2023-03-29T08:45:45;100635.00;;;11.18
59339;BMP280;45117;50.960;5.500;2023-03-29T08:48:21;100633.47;;;11.17
59339;BMP280;45117;50.960;5.500;2023-03-29T08:50:53;100635.34;;;11.24
59339;BMP280;45117;50.960;5.500;2023-03-29T08:53:23;100630.31;;;11.26
59339;BMP280;45117;50.960;5.500;2023-03-29T08:55:54;100624.63;;;11.20
59339;BMP280;45117;50.960;5.500;2023-03-29T08:58:25;100622.28;;;11.22
59339;BMP280;45117;50.960;5.500;2023-03-29T09:00:54;100623.69;;;11.34
59339;BMP280;45117;50.960;5.500;2023-03-29T09:03:23;100618.28;;;11.38
59339;BMP280;45117;50.960;5.500;2023-03-29T09:05:55;100632.38;;;11.49
59339;BMP280;45117;50.960;5.500;2023-03-29T09:08:23;100627.28;;;11.55
59339;BMP280;45117;50.960;5.500;2023-03-29T09:11:03;100627.63;;;11.57
59339;BMP280;45117;50.960;5.500;2023-03-29T09:13:36;100629.59;;;11.52
59339;BMP280;45117;50.960;5.500;2023-03-29T09:16:09;100626.03;;;11.63
59339;BMP280;45117;50.960;5.500;2023-03-29T09:18:47;100616.03;;;11.63
59339;BMP280;45117;50.960;5.500;2023-03-29T09:21:22;100605.06;;;11.77
59339;BMP280;45117;50.960;5.500;2023-03-29T09:26:44;100612.75;;;12.29
59339;BMP280;45117;50.960;5.500;2023-03-29T09:29:24;100612.63;;;12.36
59339;BMP280;45117;50.960;5.500;2023-03-29T09:31:52;100608.53;;;12.52
59339;BMP280;45117;50.960;5.500;2023-03-29T09:34:22;100606.47;;;12.36
59339;BMP280;45117;50.960;5.500;2023-03-29T09:36:52;100604.16;;;12.38
59339;BMP280;45117;50.960;5.500;2023-03-29T09:39:20;100597.44;;;12.70
59339;BMP280;45117;50.960;5.500;2023-03-29T09:41:50;100608.44;;;12.99
59339;BMP280;45117;50.960;5.500;2023-03-29T09:44:19;100596.91;;;12.98
59339;BMP280;45117;50.960;5.500;2023-03-29T09:46:50;100591.84;;;13.00
59339;BMP280;45117;50.960;5.500;2023-03-29T09:49:21;100598.81;;;13.17
59339;BMP280;45117;50.960;5.500;2023-03-29T09:51:54;100598.47;;;13.15
59339;BMP280;45117;50.960;5.500;2023-03-29T09:54:21;100608.41;;;13.38
59339;BMP280;45117;50.960;5.500;2023-03-29T09:56:48;100605.59;;;13.42
59339;BMP280;45117;50.960;5.500;2023-03-29T09:59:16;100615.25;;;13.43
59339;BMP280;45117;50.960;5.500;2023-03-29T10:01:43;100605.75;;;12.99
59339;BMP280;45117;50.960;5.500;2023-03-29T10:04:11;100615.50;;;12.92
59339;BMP280;45117;50.960;5.500;2023-03-29T10:06:41;100614.38;;;12.90
59339;BMP280;45117;50.960;5.500;2023-03-29T10:09:15;100616.81;;;13.04
59339;BMP280;45117;50.960;5.500;2023-03-29T10:11:46;100615.47;;;13.32
59339;BMP280;45117;50.960;5.500;2023-03-29T10:14:16;100614.31;;;13.49
59339;BMP280;45117;50.960;5.500;2023-03-29T10:16:44;100611.28;;;13.47
59339;BMP280;45117;50.960;5.500;2023-03-29T10:19:19;100606.22;;;13.49
59339;BMP280;45117;50.960;5.500;2023-03-29T10:21:47;100597.25;;;13.36
59339;BMP280;45117;50.960;5.500;2023-03-29T10:24:19;100588.34;;;13.39
59339;BMP280;45117;50.960;5.500;2023-03-29T10:26:46;100590.00;;;13.33
59339;BMP280;45117;50.960;5.500;2023-03-29T10:29:13;100582.00;;;13.46
59339;BMP280;45117;50.960;5.500;2023-03-29T10:31:40;100588.38;;;13.56
59339;BMP280;45117;50.960;5.500;2023-03-29T10:34:09;100587.44;;;13.62
59339;BMP280;45117;50.960;5.500;2023-03-29T10:36:39;100591.69;;;13.63
59339;BMP280;45117;50.960;5.500;2023-03-29T10:39:08;100594.91;;;13.54
59339;BMP280;45117;50.960;5.500;2023-03-29T10:41:37;100599.19;;;13.72
59339;BMP280;45117;50.960;5.500;2023-03-29T10:44:04;100594.78;;;13.62
59339;BMP280;45117;50.960;5.500;2023-03-29T10:46:40;100586.63;;;13.81
59339;BMP280;45117;50.960;5.500;2023-03-29T10:49:16;100577.56;;;14.04
59339;BMP280;45117;50.960;5.500;2023-03-29T10:51:44;100574.88;;;14.21
59339;BMP280;45117;50.960;5.500;2023-03-29T10:54:12;100571.75;;;14.51
59339;BMP280;45117;50.960;5.500;2023-03-29T10:56:42;100562.69;;;15.38
59339;BMP280;45117;50.960;5.500;2023-03-29T10:59:20;100559.09;;;15.28
59339;BMP280;45117;50.960;5.500;2023-03-29T11:04:40;100555.34;;;15.73
59339;BMP280;45117;50.960;5.500;2023-03-29T11:07:24;100552.72;;;15.34
59339;BMP280;45117;50.960;5.500;2023-03-29T11:13:20;100557.66;;;15.61
59339;BMP280;45117;50.960;5.500;2023-03-29T11:15:58;100544.50;;;15.85
59339;BMP280;45117;50.960;5.500;2023-03-29T11:25:08;100538.13;;;16.36
59339;BMP280;45117;50.960;5.500;2023-03-29T11:27:44;100546.19;;;16.48
59339;BMP280;45117;50.960;5.500;2023-03-29T11:30:17;100544.56;;;17.13
59339;BMP280;45117;50.960;5.500;2023-03-29T11:32:50;100540.31;;;17.12
59339;BMP280;45117;50.960;5.500;2023-03-29T11:35:35;100540.28;;;17.03
59339;BMP280;45117;50.960;5.500;2023-03-29T11:38:12;100535.63;;;16.72
59339;BMP280;45117;50.960;5.500;2023-03-29T11:40:48;100541.66;;;16.45
59339;BMP280;45117;50.960;5.500;2023-03-29T11:43:20;100540.97;;;16.54
59339;BMP280;45117;50.960;5.500;2023-03-29T11:45:52;100541.81;;;16.42
59339;BMP280;45117;50.960;5.500;2023-03-29T11:48:22;100529.94;;;16.79
59339;BMP280;45117;50.960;5.500;2023-03-29T11:50:53;100529.88;;;16.61
59339;BMP280;45117;50.960;5.500;2023-03-29T11:53:27;100525.28;;;16.80
59339;BMP280;45117;50.960;5.500;2023-03-29T11:55:57;100519.56;;;16.78
59339;BMP280;45117;50.960;5.500;2023-03-29T11:58:28;100520.78;;;16.55
59339;BMP280;45117;50.960;5.500;2023-03-29T12:01:00;100515.16;;;16.71
59339;BMP280;45117;50.960;5.500;2023-03-29T12:03:33;100519.47;;;16.91
59339;BMP280;45117;50.960;5.500;2023-03-29T12:06:08;100523.22;;;16.93
59339;BMP280;45117;50.960;5.500;2023-03-29T12:08:38;100520.50;;;16.93
59339;BMP280;45117;50.960;5.500;2023-03-29T12:11:13;100526.03;;;17.21
59339;BMP280;45117;50.960;5.500;2023-03-29T12:13:44;100508.25;;;16.79
59339;BMP280;45117;50.960;5.500;2023-03-29T12:16:17;100522.69;;;16.76
59339;BMP280;45117;50.960;5.500;2023-03-29T12:18:47;100524.25;;;16.55
59339;BMP280;45117;50.960;5.500;2023-03-29T12:21:19;100529.59;;;16.37
59339;BMP280;45117;50.960;5.500;2023-03-29T12:23:46;100526.34;;;16.51
59339;BMP280;45117;50.960;5.500;2023-03-29T12:26:23;100522.84;;;16.73
59339;BMP280;45117;50.960;5.500;2023-03-29T12:29:07;100507.94;;;16.77
59339;BMP280;45117;50.960;5.500;2023-03-29T12:31:42;100513.66;;;16.79
59339;BMP280;45117;50.960;5.500;2023-03-29T12:34:20;100506.97;;;17.02
59339;BMP280;45117;50.960;5.500;2023-03-29T12:37:04;100502.66;;;17.23
59339;BMP280;45117;50.960;5.500;2023-03-29T12:39:35;100501.16;;;17.31
59339;BMP280;45117;50.960;5.500;2023-03-29T12:42:11;100488.81;;;17.48
59339;BMP280;45117;50.960;5.500;2023-03-29T12:44:40;100486.44;;;17.60
59339;BMP280;45117;50.960;5.500;2023-03-29T12:47:17;100480.13;;;18.23
59339;BMP280;45117;50.960;5.500;2023-03-29T12:49:44;100471.72;;;18.12
59339;BMP280;45117;50.960;5.500;2023-03-29T12:52:24;100465.72;;;17.99
59339;BMP280;45117;50.960;5.500;2023-03-29T12:54:53;100460.44;;;18.04
59339;BMP280;45117;50.960;5.500;2023-03-29T12:57:23;100454.97;;;18.14
59339;BMP280;45117;50.960;5.500;2023-03-29T12:59:51;100460.09;;;18.12
59339;BMP280;45117;50.960;5.500;2023-03-29T13:02:32;100453.41;;;18.31
59339;BMP280;45117;50.960;5.500;2023-03-29T13:04:59;100453.09;;;18.29
59339;BMP280;45117;50.960;5.500;2023-03-29T13:07:43;100447.13;;;18.06
59339;BMP280;45117;50.960;5.500;2023-03-29T13:10:33;100455.16;;;18.01
59339;BMP280;45117;50.960;5.500;2023-03-29T13:13:09;100450.44;;;18.10
59339;BMP280;45117;50.960;5.500;2023-03-29T13:15:36;100448.59;;;18.26
59339;BMP280;45117;50.960;5.500;2023-03-29T13:18:12;100441.06;;;18.12
59339;BMP280;45117;50.960;5.500;2023-03-29T13:20:44;100436.47;;;17.75
59339;BMP280;45117;50.960;5.500;2023-03-29T13:23:27;100443.09;;;17.93
59339;BMP280;45117;50.960;5.500;2023-03-29T13:26:05;100434.38;;;17.89
59339;BMP280;45117;50.960;5.500;2023-03-29T13:28:44;100433.16;;;17.71
59339;BMP280;45117;50.960;5.500;2023-03-29T13:31:24;100414.28;;;17.77
59339;BMP280;45117;50.960;5.500;2023-03-29T13:34:01;100415.34;;;17.79
59339;BMP280;45117;50.960;5.500;2023-03-29T13:36:42;100415.63;;;17.82
59339;BMP280;45117;50.960;5.500;2023-03-29T13:39:18;100408.34;;;18.06
59339;BMP280;45117;50.960;5.500;2023-03-29T13:41:48;100403.66;;;18.06
59339;BMP280;45117;50.960;5.500;2023-03-29T13:44:26;100393.13;;;17.90
59339;BMP280;45117;50.960;5.500;2023-03-29T13:47:02;100397.19;;;18.04
59339;BMP280;45117;50.960;5.500;2023-03-29T13:49:32;100396.13;;;18.01
59339;BMP280;45117;50.960;5.500;2023-03-29T13:52:04;100386.84;;;17.84
59339;BMP280;45117;50.960;5.500;2023-03-29T13:54:41;100393.06;;;17.48
59339;BMP280;45117;50.960;5.500;2023-03-29T13:57:12;100385.66;;;17.48
59339;BMP280;45117;50.960;5.500;2023-03-29T13:59:46;100389.56;;;17.57
59339;BMP280;45117;50.960;5.500;2023-03-29T14:02:20;100392.88;;;17.61
59339;BMP280;45117;50.960;5.500;2023-03-29T14:04:49;100393.03;;;17.75
59339;BMP280;45117;50.960;5.500;2023-03-29T14:07:19;100386.25;;;17.71
59339;BMP280;45117;50.960;5.500;2023-03-29T14:09:51;100386.84;;;17.66
59339;BMP280;45117;50.960;5.500;2023-03-29T14:12:19;100378.28;;;17.49
59339;BMP280;45117;50.960;5.500;2023-03-29T14:14:46;100381.59;;;17.53
59339;BMP280;45117;50.960;5.500;2023-03-29T14:17:17;100376.47;;;17.55
59339;BMP280;45117;50.960;5.500;2023-03-29T14:19:45;100374.19;;;17.72
59339;BMP280;45117;50.960;5.500;2023-03-29T14:22:16;100382.47;;;17.77
59339;BMP280;45117;50.960;5.500;2023-03-29T14:24:50;100375.38;;;17.62
59339;BMP280;45117;50.960;5.500;2023-03-29T14:27:18;100371.16;;;17.61
59339;BMP280;45117;50.960;5.500;2023-03-29T14:29:46;100369.84;;;17.47
59339;BMP280;45117;50.960;5.500;2023-03-29T14:32:14;100366.97;;;17.60